sensor_id;sensor_type;location;lat;lon;timestamp;pressure;altitude;pressure_sealevel;temperature;humidity
48810;BME280;40070;47.322;18.784;2022-09-17T00:00:31;995.08;;;16.50;72.21
48810;BME280;40070;47.322;18.784;2022-09-17T00:02:32;994.99;;;16.47;72.18
48810;BME280;40070;47.322;18.784;2022-09-17T00:04:34;995.02;;;16.44;72.45
48810;BME280;40070;47.322;18.784;2022-09-17T00:06:34;994.97;;;16.49;72.22
48810;BME280;40070;47.322;18.784;2022-09-17T00:08:36;994.91;;;16.34;72.64
48810;BME280;40070;47.322;18.784;2022-09-17T00:10:38;994.85;;;16.52;72.38
48810;BME280;40070;47.322;18.784;2022-09-17T00:12:39;994.77;;;16.39;72.41
48810;BME280;40070;47.322;18.784;2022-09-17T00:14:40;994.76;;;16.35;72.85
48810;BME280;40070;47.322;18.784;2022-09-17T00:16:42;994.75;;;16.35;72.91
48810;BME280;40070;47.322;18.784;2022-09-17T00:18:43;994.73;;;16.29;73.15
48810;BME280;40070;47.322;18.784;2022-09-17T00:20:45;994.75;;;16.34;73.00
48810;BME280;40070;47.322;18.784;2022-09-17T00:22:46;994.75;;;16.54;72.16
48810;BME280;40070;47.322;18.784;2022-09-17T00:24:47;994.80;;;16.36;72.44
48810;BME280;40070;47.322;18.784;2022-09-17T00:26:48;994.75;;;16.46;72.53
48810;BME280;40070;47.322;18.784;2022-09-17T00:28:50;994.76;;;16.44;72.74
48810;BME280;40070;47.322;18.784;2022-09-17T00:30:51;994.72;;;16.44;72.85
48810;BME280;40070;47.322;18.784;2022-09-17T00:32:52;994.69;;;16.53;72.27
48810;BME280;40070;47.322;18.784;2022-09-17T00:34:52;994.61;;;16.68;71.81
48810;BME280;40070;47.322;18.784;2022-09-17T00:36:53;994.57;;;16.94;71.06
48810;BME280;40070;47.322;18.784;2022-09-17T00:38:56;994.47;;;16.71;71.34
48810;BME280;40070;47.322;18.784;2022-09-17T00:40:57;994.43;;;16.60;71.82
48810;BME280;40070;47.322;18.784;2022-09-17T00:42:58;994.37;;;16.70;71.74
48810;BME280;40070;47.322;18.784;2022-09-17T00:44:59;994.42;;;16.85;71.30
48810;BME280;40070;47.322;18.784;2022-09-17T00:47:00;994.37;;;17.01;70.88
48810;BME280;40070;47.322;18.784;2022-09-17T00:49:04;994.36;;;16.94;70.99
48810;BME280;40070;47.322;18.784;2022-09-17T00:51:06;994.37;;;16.83;70.95
48810;BME280;40070;47.322;18.784;2022-09-17T00:53:11;994.36;;;16.88;71.00
48810;BME280;40070;47.322;18.784;2022-09-17T00:57:29;994.29;;;16.98;70.51
48810;BME280;40070;47.322;18.784;2022-09-17T00:59:30;994.32;;;16.76;71.02
48810;BME280;40070;47.322;18.784;2022-09-17T01:01:32;994.23;;;16.69;71.59
48810;BME280;40070;47.322;18.784;2022-09-17T01:03:33;994.24;;;16.80;71.29
48810;BME280;40070;47.322;18.784;2022-09-17T01:05:36;994.31;;;16.77;71.42
48810;BME280;40070;47.322;18.784;2022-09-17T01:10:02;994.39;;;16.57;71.78
48810;BME280;40070;47.322;18.784;2022-09-17T01:12:26;994.41;;;16.61;71.61
48810;BME280;40070;47.322;18.784;2022-09-17T01:16:52;994.41;;;16.72;71.27
48810;BME280;40070;47.322;18.784;2022-09-17T01:18:59;994.38;;;16.73;71.10
48810;BME280;40070;47.322;18.784;2022-09-17T01:25:40;994.57;;;16.23;72.41
48810;BME280;40070;47.322;18.784;2022-09-17T01:30:04;994.62;;;16.44;71.51
48810;BME280;40070;47.322;18.784;2022-09-17T01:43:54;994.81;;;16.11;71.96
48810;BME280;40070;47.322;18.784;2022-09-17T01:45:59;994.84;;;16.09;71.82
48810;BME280;40070;47.322;18.784;2022-09-17T01:48:39;994.81;;;16.29;71.05
48810;BME280;40070;47.322;18.784;2022-09-17T01:50:24;994.83;;;16.09;70.63
48810;BME280;40070;47.322;18.784;2022-09-17T01:52:28;994.80;;;16.08;70.72
48810;BME280;40070;47.322;18.784;2022-09-17T01:54:36;994.78;;;16.03;70.42
48810;BME280;40070;47.322;18.784;2022-09-17T01:56:44;994.80;;;15.98;70.32
48810;BME280;40070;47.322;18.784;2022-09-17T01:58:51;994.77;;;15.95;69.89
48810;BME280;40070;47.322;18.784;2022-09-17T02:00:55;994.74;;;15.56;71.06
48810;BME280;40070;47.322;18.784;2022-09-17T02:05:20;994.65;;;15.64;71.01
48810;BME280;40070;47.322;18.784;2022-09-17T02:07:22;994.66;;;15.59;71.11
48810;BME280;40070;47.322;18.784;2022-09-17T02:09:40;994.60;;;15.65;70.63
48810;BME280;40070;47.322;18.784;2022-09-17T02:11:44;994.66;;;15.65;70.17
48810;BME280;40070;47.322;18.784;2022-09-17T02:13:47;994.65;;;15.62;70.70
48810;BME280;40070;47.322;18.784;2022-09-17T02:15:53;994.66;;;15.73;70.56
48810;BME280;40070;47.322;18.784;2022-09-17T02:17:57;994.66;;;15.72;70.58
48810;BME280;40070;47.322;18.784;2022-09-17T02:19:59;994.63;;;15.91;70.55
48810;BME280;40070;47.322;18.784;2022-09-17T02:24:23;994.56;;;15.83;70.43
48810;BME280;40070;47.322;18.784;2022-09-17T02:26:24;994.53;;;15.81;70.57
48810;BME280;40070;47.322;18.784;2022-09-17T02:28:44;994.52;;;15.62;70.69
48810;BME280;40070;47.322;18.784;2022-09-17T02:30:46;994.50;;;15.52;71.22
48810;BME280;40070;47.322;18.784;2022-09-17T02:32:47;994.45;;;15.66;70.46
48810;BME280;40070;47.322;18.784;2022-09-17T02:34:47;994.48;;;15.50;71.16
48810;BME280;40070;47.322;18.784;2022-09-17T02:36:50;994.42;;;15.63;71.11
48810;BME280;40070;47.322;18.784;2022-09-17T02:38:57;994.45;;;15.76;70.29
48810;BME280;40070;47.322;18.784;2022-09-17T02:41:12;994.42;;;15.63;70.75
48810;BME280;40070;47.322;18.784;2022-09-17T02:43:34;994.38;;;15.69;70.55
48810;BME280;40070;47.322;18.784;2022-09-17T02:45:38;994.29;;;15.49;70.54
48810;BME280;40070;47.322;18.784;2022-09-17T02:59:42;994.06;;;15.19;71.26
48810;BME280;40070;47.322;18.784;2022-09-17T03:01:51;993.95;;;15.31;71.49
48810;BME280;40070;47.322;18.784;2022-09-17T03:03:56;993.85;;;15.22;71.34
48810;BME280;40070;47.322;18.784;2022-09-17T03:05:58;993.85;;;15.21;70.97
48810;BME280;40070;47.322;18.784;2022-09-17T03:08:00;993.73;;;15.42;70.68
48810;BME280;40070;47.322;18.784;2022-09-17T03:10:01;993.62;;;15.49;69.89
48810;BME280;40070;47.322;18.784;2022-09-17T03:12:02;993.58;;;15.25;70.38
48810;BME280;40070;47.322;18.784;2022-09-17T03:14:03;993.42;;;15.26;70.91
48810;BME280;40070;47.322;18.784;2022-09-17T03:16:04;993.42;;;15.13;71.19
48810;BME280;40070;47.322;18.784;2022-09-17T03:18:05;993.49;;;15.12;71.25
48810;BME280;40070;47.322;18.784;2022-09-17T03:20:06;993.45;;;15.16;70.85
48810;BME280;40070;47.322;18.784;2022-09-17T03:22:07;993.36;;;15.22;69.85
48810;BME280;40070;47.322;18.784;2022-09-17T03:24:08;993.34;;;15.16;70.56
48810;BME280;40070;47.322;18.784;2022-09-17T03:26:09;993.27;;;15.01;71.23
48810;BME280;40070;47.322;18.784;2022-09-17T03:28:10;993.21;;;14.92;70.64
48810;BME280;40070;47.322;18.784;2022-09-17T03:30:11;993.17;;;14.76;71.22
48810;BME280;40070;47.322;18.784;2022-09-17T03:32:12;993.11;;;14.73;71.62
48810;BME280;40070;47.322;18.784;2022-09-17T03:34:12;993.18;;;14.77;71.85
48810;BME280;40070;47.322;18.784;2022-09-17T03:36:13;993.16;;;14.79;72.75
48810;BME280;40070;47.322;18.784;2022-09-17T03:38:15;993.17;;;14.80;72.20
48810;BME280;40070;47.322;18.784;2022-09-17T03:40:16;993.12;;;14.95;71.50
48810;BME280;40070;47.322;18.784;2022-09-17T03:42:17;993.12;;;14.93;70.91
48810;BME280;40070;47.322;18.784;2022-09-17T03:44:19;993.17;;;15.00;70.60
48810;BME280;40070;47.322;18.784;2022-09-17T03:46:20;993.23;;;15.08;70.73
48810;BME280;40070;47.322;18.784;2022-09-17T03:48:21;993.35;;;15.10;71.18
48810;BME280;40070;47.322;18.784;2022-09-17T03:50:22;993.32;;;15.20;71.18
48810;BME280;40070;47.322;18.784;2022-09-17T03:52:23;993.46;;;15.14;70.76
48810;BME280;40070;47.322;18.784;2022-09-17T03:54:24;993.41;;;15.26;69.81
48810;BME280;40070;47.322;18.784;2022-09-17T03:56:25;993.51;;;15.00;69.82
48810;BME280;40070;47.322;18.784;2022-09-17T03:58:26;993.50;;;15.14;70.09
48810;BME280;40070;47.322;18.784;2022-09-17T04:00:27;993.46;;;15.17;70.15
48810;BME280;40070;47.322;18.784;2022-09-17T04:02:28;993.47;;;15.25;69.70
48810;BME280;40070;47.322;18.784;2022-09-17T04:04:29;993.46;;;15.52;69.29
48810;BME280;40070;47.322;18.784;2022-09-17T04:06:30;993.35;;;15.55;68.97
48810;BME280;40070;47.322;18.784;2022-09-17T04:08:31;993.38;;;15.06;69.58
48810;BME280;40070;47.322;18.784;2022-09-17T04:10:32;993.33;;;15.09;69.56
48810;BME280;40070;47.322;18.784;2022-09-17T04:12:33;993.40;;;15.01;70.11
48810;BME280;40070;47.322;18.784;2022-09-17T04:14:33;993.41;;;14.86;70.77
48810;BME280;40070;47.322;18.784;2022-09-17T04:16:34;993.33;;;14.98;70.50
48810;BME280;40070;47.322;18.784;2022-09-17T04:18:36;993.30;;;14.94;70.21
48810;BME280;40070;47.322;18.784;2022-09-17T04:20:37;993.27;;;14.86;70.41
48810;BME280;40070;47.322;18.784;2022-09-17T04:22:38;993.34;;;14.90;70.24
48810;BME280;40070;47.322;18.784;2022-09-17T04:24:39;993.37;;;15.10;70.71
48810;BME280;40070;47.322;18.784;2022-09-17T04:26:40;993.36;;;15.09;70.21
48810;BME280;40070;47.322;18.784;2022-09-17T04:28:42;993.34;;;15.09;70.91
48810;BME280;40070;47.322;18.784;2022-09-17T04:30:43;993.23;;;15.35;70.24
48810;BME280;40070;47.322;18.784;2022-09-17T04:32:44;993.27;;;15.48;70.18
48810;BME280;40070;47.322;18.784;2022-09-17T04:34:45;993.23;;;15.50;69.82
48810;BME280;40070;47.322;18.784;2022-09-17T04:36:46;993.23;;;15.35;69.71
48810;BME280;40070;47.322;18.784;2022-09-17T04:38:47;993.15;;;15.24;69.80
48810;BME280;40070;47.322;18.784;2022-09-17T04:40:48;993.08;;;15.38;70.15
48810;BME280;40070;47.322;18.784;2022-09-17T04:42:58;993.09;;;15.31;70.06
48810;BME280;40070;47.322;18.784;2022-09-17T04:44:59;992.97;;;15.27;69.60
48810;BME280;40070;47.322;18.784;2022-09-17T04:47:00;993.07;;;15.39;68.86
48810;BME280;40070;47.322;18.784;2022-09-17T04:49:01;993.18;;;14.98;69.64
48810;BME280;40070;47.322;18.784;2022-09-17T04:51:02;992.97;;;15.33;68.61
48810;BME280;40070;47.322;18.784;2022-09-17T04:53:03;992.98;;;15.38;68.66
48810;BME280;40070;47.322;18.784;2022-09-17T04:55:04;992.92;;;15.15;68.87
48810;BME280;40070;47.322;18.784;2022-09-17T04:57:05;992.87;;;15.23;69.39
48810;BME280;40070;47.322;18.784;2022-09-17T04:59:06;992.92;;;15.37;68.97
48810;BME280;40070;47.322;18.784;2022-09-17T05:01:07;992.98;;;15.48;69.22
48810;BME280;40070;47.322;18.784;2022-09-17T05:03:08;993.05;;;15.38;68.90
48810;BME280;40070;47.322;18.784;2022-09-17T05:05:09;993.23;;;15.41;68.76
48810;BME280;40070;47.322;18.784;2022-09-17T05:07:10;993.34;;;15.51;68.57
48810;BME280;40070;47.322;18.784;2022-09-17T05:09:10;993.35;;;15.59;69.16
48810;BME280;40070;47.322;18.784;2022-09-17T05:11:11;993.38;;;15.63;69.13
48810;BME280;40070;47.322;18.784;2022-09-17T05:13:12;993.40;;;15.56;69.29
48810;BME280;40070;47.322;18.784;2022-09-17T05:15:13;993.47;;;15.51;69.60
48810;BME280;40070;47.322;18.784;2022-09-17T05:17:14;993.51;;;15.57;69.48
48810;BME280;40070;47.322;18.784;2022-09-17T05:19:15;993.56;;;15.52;69.44
48810;BME280;40070;47.322;18.784;2022-09-17T05:21:17;993.63;;;15.54;69.17
48810;BME280;40070;47.322;18.784;2022-09-17T05:23:18;993.70;;;15.61;68.85
48810;BME280;40070;47.322;18.784;2022-09-17T05:25:19;993.66;;;15.73;68.46
48810;BME280;40070;47.322;18.784;2022-09-17T05:27:20;993.77;;;15.63;67.56
48810;BME280;40070;47.322;18.784;2022-09-17T05:29:21;993.69;;;15.70;67.68
48810;BME280;40070;47.322;18.784;2022-09-17T05:31:22;993.69;;;15.73;68.00
48810;BME280;40070;47.322;18.784;2022-09-17T05:33:23;993.74;;;15.78;67.80
48810;BME280;40070;47.322;18.784;2022-09-17T05:35:24;993.74;;;15.84;67.76
48810;BME280;40070;47.322;18.784;2022-09-17T05:37:25;993.69;;;15.88;67.66
48810;BME280;40070;47.322;18.784;2022-09-17T05:39:26;993.65;;;15.71;67.42
48810;BME280;40070;47.322;18.784;2022-09-17T05:41:27;993.69;;;15.51;67.47
48810;BME280;40070;47.322;18.784;2022-09-17T05:43:28;993.72;;;15.42;67.97
48810;BME280;40070;47.322;18.784;2022-09-17T05:45:29;993.82;;;15.08;69.01
48810;BME280;40070;47.322;18.784;2022-09-17T05:47:30;993.90;;;15.09;68.43
48810;BME280;40070;47.322;18.784;2022-09-17T05:49:31;993.93;;;15.13;68.48
48810;BME280;40070;47.322;18.784;2022-09-17T05:51:31;994.02;;;15.26;68.77
48810;BME280;40070;47.322;18.784;2022-09-17T05:53:32;993.96;;;15.07;67.83
48810;BME280;40070;47.322;18.784;2022-09-17T05:55:33;993.98;;;15.17;67.47
48810;BME280;40070;47.322;18.784;2022-09-17T05:57:34;993.98;;;15.05;67.47
48810;BME280;40070;47.322;18.784;2022-09-17T05:59:35;994.02;;;14.99;68.07
48810;BME280;40070;47.322;18.784;2022-09-17T06:01:36;994.02;;;14.92;68.05
48810;BME280;40070;47.322;18.784;2022-09-17T06:03:37;994.03;;;14.77;68.75
48810;BME280;40070;47.322;18.784;2022-09-17T06:05:38;993.97;;;14.87;68.44
48810;BME280;40070;47.322;18.784;2022-09-17T06:07:39;993.98;;;14.91;68.54
48810;BME280;40070;47.322;18.784;2022-09-17T06:09:41;993.93;;;15.10;67.84
48810;BME280;40070;47.322;18.784;2022-09-17T06:11:42;993.91;;;15.16;67.64
48810;BME280;40070;47.322;18.784;2022-09-17T06:13:42;993.93;;;15.03;68.88
48810;BME280;40070;47.322;18.784;2022-09-17T06:15:52;993.99;;;14.80;68.45
48810;BME280;40070;47.322;18.784;2022-09-17T06:17:53;994.05;;;14.92;68.66
48810;BME280;40070;47.322;18.784;2022-09-17T06:19:54;994.02;;;14.86;68.88
48810;BME280;40070;47.322;18.784;2022-09-17T06:21:57;994.01;;;14.82;69.44
48810;BME280;40070;47.322;18.784;2022-09-17T06:23:57;993.91;;;14.97;69.00
48810;BME280;40070;47.322;18.784;2022-09-17T06:26:00;993.96;;;14.89;69.82
48810;BME280;40070;47.322;18.784;2022-09-17T06:28:01;994.02;;;14.98;68.26
48810;BME280;40070;47.322;18.784;2022-09-17T06:30:03;994.02;;;15.08;69.14
48810;BME280;40070;47.322;18.784;2022-09-17T06:32:04;994.01;;;14.96;69.33
48810;BME280;40070;47.322;18.784;2022-09-17T06:34:05;993.96;;;15.06;68.24
48810;BME280;40070;47.322;18.784;2022-09-17T06:36:09;993.95;;;15.11;68.84
48810;BME280;40070;47.322;18.784;2022-09-17T06:38:10;994.03;;;14.78;69.49
48810;BME280;40070;47.322;18.784;2022-09-17T06:40:11;994.01;;;14.85;69.32
48810;BME280;40070;47.322;18.784;2022-09-17T06:42:12;994.12;;;14.81;68.34
48810;BME280;40070;47.322;18.784;2022-09-17T06:44:13;994.13;;;14.86;67.77
48810;BME280;40070;47.322;18.784;2022-09-17T06:46:14;994.15;;;14.84;68.32
48810;BME280;40070;47.322;18.784;2022-09-17T06:48:15;994.16;;;14.91;67.22
48810;BME280;40070;47.322;18.784;2022-09-17T06:50:15;994.15;;;14.94;67.51
48810;BME280;40070;47.322;18.784;2022-09-17T06:52:16;994.10;;;14.74;67.66
48810;BME280;40070;47.322;18.784;2022-09-17T06:54:17;994.01;;;14.75;67.38
48810;BME280;40070;47.322;18.784;2022-09-17T06:56:20;994.02;;;14.81;67.52
48810;BME280;40070;47.322;18.784;2022-09-17T06:58:22;994.06;;;14.68;67.33
48810;BME280;40070;47.322;18.784;2022-09-17T07:00:24;994.11;;;14.62;67.61
48810;BME280;40070;47.322;18.784;2022-09-17T07:02:27;994.10;;;14.51;68.27
48810;BME280;40070;47.322;18.784;2022-09-17T07:04:29;994.15;;;14.62;67.40
48810;BME280;40070;47.322;18.784;2022-09-17T07:06:32;994.18;;;14.60;67.62
48810;BME280;40070;47.322;18.784;2022-09-17T07:08:34;994.13;;;14.56;67.70
48810;BME280;40070;47.322;18.784;2022-09-17T07:10:36;994.04;;;14.56;67.59
48810;BME280;40070;47.322;18.784;2022-09-17T07:12:39;993.94;;;14.60;67.23
48810;BME280;40070;47.322;18.784;2022-09-17T07:14:42;993.93;;;14.53;67.35
48810;BME280;40070;47.322;18.784;2022-09-17T07:16:44;993.97;;;14.53;67.15
48810;BME280;40070;47.322;18.784;2022-09-17T07:18:47;993.98;;;14.66;66.92
48810;BME280;40070;47.322;18.784;2022-09-17T07:20:56;994.04;;;14.62;66.93
48810;BME280;40070;47.322;18.784;2022-09-17T07:22:58;994.01;;;14.58;66.81
48810;BME280;40070;47.322;18.784;2022-09-17T07:25:01;993.96;;;14.65;66.98
48810;BME280;40070;47.322;18.784;2022-09-17T07:27:04;993.99;;;14.66;67.01
48810;BME280;40070;47.322;18.784;2022-09-17T07:29:06;994.08;;;14.67;67.58
48810;BME280;40070;47.322;18.784;2022-09-17T07:31:09;994.12;;;14.81;66.54
48810;BME280;40070;47.322;18.784;2022-09-17T07:33:12;994.20;;;14.86;66.03
48810;BME280;40070;47.322;18.784;2022-09-17T07:35:14;994.25;;;14.83;64.96
48810;BME280;40070;47.322;18.784;2022-09-17T07:37:17;994.23;;;15.07;64.51
48810;BME280;40070;47.322;18.784;2022-09-17T07:39:19;994.22;;;15.07;66.45
48810;BME280;40070;47.322;18.784;2022-09-17T07:41:21;994.24;;;15.28;66.59
48810;BME280;40070;47.322;18.784;2022-09-17T07:43:25;994.24;;;15.28;65.61
48810;BME280;40070;47.322;18.784;2022-09-17T07:45:27;994.20;;;15.36;65.20
48810;BME280;40070;47.322;18.784;2022-09-17T07:47:30;994.21;;;15.46;65.01
48810;BME280;40070;47.322;18.784;2022-09-17T07:49:32;994.13;;;15.40;64.40
48810;BME280;40070;47.322;18.784;2022-09-17T07:51:35;994.16;;;15.44;64.05
48810;BME280;40070;47.322;18.784;2022-09-17T07:53:37;994.19;;;15.53;64.18
48810;BME280;40070;47.322;18.784;2022-09-17T07:55:40;994.25;;;15.41;65.07
48810;BME280;40070;47.322;18.784;2022-09-17T07:57:42;994.27;;;15.73;66.09
48810;BME280;40070;47.322;18.784;2022-09-17T07:59:44;994.45;;;15.80;64.05
48810;BME280;40070;47.322;18.784;2022-09-17T08:01:47;994.55;;;15.87;63.35
48810;BME280;40070;47.322;18.784;2022-09-17T08:03:50;994.62;;;16.05;63.87
48810;BME280;40070;47.322;18.784;2022-09-17T08:05:53;994.62;;;16.24;63.78
48810;BME280;40070;47.322;18.784;2022-09-17T08:07:55;994.59;;;16.28;63.13
48810;BME280;40070;47.322;18.784;2022-09-17T08:09:57;994.58;;;16.36;62.59
48810;BME280;40070;47.322;18.784;2022-09-17T08:12:00;994.50;;;16.40;63.04
48810;BME280;40070;47.322;18.784;2022-09-17T08:14:02;994.49;;;16.37;63.61
48810;BME280;40070;47.322;18.784;2022-09-17T08:16:06;994.50;;;16.17;63.46
48810;BME280;40070;47.322;18.784;2022-09-17T08:18:09;994.56;;;16.10;63.83
48810;BME280;40070;47.322;18.784;2022-09-17T08:20:11;994.60;;;16.01;65.50
48810;BME280;40070;47.322;18.784;2022-09-17T08:22:14;994.69;;;15.76;64.34
48810;BME280;40070;47.322;18.784;2022-09-17T08:24:16;994.74;;;16.00;63.48
48810;BME280;40070;47.322;18.784;2022-09-17T08:26:20;994.72;;;15.81;63.38
48810;BME280;40070;47.322;18.784;2022-09-17T08:28:24;994.70;;;15.72;63.74
48810;BME280;40070;47.322;18.784;2022-09-17T08:30:26;994.73;;;15.66;63.58
48810;BME280;40070;47.322;18.784;2022-09-17T08:32:29;994.61;;;15.32;64.31
48810;BME280;40070;47.322;18.784;2022-09-17T08:34:31;994.57;;;15.15;65.12
48810;BME280;40070;47.322;18.784;2022-09-17T08:36:33;994.50;;;15.31;64.72
48810;BME280;40070;47.322;18.784;2022-09-17T08:38:36;994.48;;;15.47;65.37
48810;BME280;40070;47.322;18.784;2022-09-17T08:40:41;994.45;;;15.56;64.91
48810;BME280;40070;47.322;18.784;2022-09-17T08:42:55;994.45;;;15.36;65.33
48810;BME280;40070;47.322;18.784;2022-09-17T08:45:01;994.47;;;15.11;64.87
48810;BME280;40070;47.322;18.784;2022-09-17T08:49:29;994.50;;;14.97;66.16
48810;BME280;40070;47.322;18.784;2022-09-17T08:54:03;994.55;;;15.28;66.29
48810;BME280;40070;47.322;18.784;2022-09-17T08:56:12;994.56;;;15.27;65.88
48810;BME280;40070;47.322;18.784;2022-09-17T09:00:43;994.53;;;15.11;65.33
48810;BME280;40070;47.322;18.784;2022-09-17T09:03:07;994.56;;;15.30;65.39
48810;BME280;40070;47.322;18.784;2022-09-17T09:05:15;994.54;;;15.27;64.41
48810;BME280;40070;47.322;18.784;2022-09-17T09:07:20;994.53;;;15.26;64.66
48810;BME280;40070;47.322;18.784;2022-09-17T09:09:26;994.53;;;15.37;63.97
48810;BME280;40070;47.322;18.784;2022-09-17T09:11:30;994.47;;;15.38;64.25
48810;BME280;40070;47.322;18.784;2022-09-17T09:13:56;994.46;;;15.26;64.07
48810;BME280;40070;47.322;18.784;2022-09-17T09:15:52;994.49;;;15.41;64.30
48810;BME280;40070;47.322;18.784;2022-09-17T09:17:55;994.51;;;15.53;63.97
48810;BME280;40070;47.322;18.784;2022-09-17T09:19:59;994.41;;;15.44;63.47
48810;BME280;40070;47.322;18.784;2022-09-17T09:22:21;994.38;;;15.42;63.49
48810;BME280;40070;47.322;18.784;2022-09-17T09:24:29;994.42;;;15.49;63.09
48810;BME280;40070;47.322;18.784;2022-09-17T09:26:39;994.44;;;15.42;63.24
48810;BME280;40070;47.322;18.784;2022-09-17T09:28:53;994.44;;;15.54;63.37
48810;BME280;40070;47.322;18.784;2022-09-17T09:31:21;994.46;;;15.68;63.44
48810;BME280;40070;47.322;18.784;2022-09-17T09:33:22;994.52;;;15.59;62.55
48810;BME280;40070;47.322;18.784;2022-09-17T09:35:33;994.55;;;15.56;62.71
48810;BME280;40070;47.322;18.784;2022-09-17T09:37:36;994.48;;;15.63;62.52
48810;BME280;40070;47.322;18.784;2022-09-17T09:39:41;994.42;;;15.61;62.19
48810;BME280;40070;47.322;18.784;2022-09-17T09:41:46;994.40;;;15.61;63.10
48810;BME280;40070;47.322;18.784;2022-09-17T09:50:46;994.54;;;15.55;63.15
48810;BME280;40070;47.322;18.784;2022-09-17T09:57:35;994.48;;;15.73;63.45
48810;BME280;40070;47.322;18.784;2022-09-17T09:59:39;994.46;;;15.48;63.59
48810;BME280;40070;47.322;18.784;2022-09-17T10:01:42;994.38;;;15.46;62.55
48810;BME280;40070;47.322;18.784;2022-09-17T10:03:44;994.35;;;15.53;62.35
48810;BME280;40070;47.322;18.784;2022-09-17T10:05:54;994.37;;;15.44;60.90
48810;BME280;40070;47.322;18.784;2022-09-17T10:07:57;994.41;;;15.63;61.82
48810;BME280;40070;47.322;18.784;2022-09-17T10:10:07;994.38;;;15.57;61.67
48810;BME280;40070;47.322;18.784;2022-09-17T10:12:18;994.29;;;15.58;61.39
48810;BME280;40070;47.322;18.784;2022-09-17T10:14:25;994.21;;;15.50;59.83
48810;BME280;40070;47.322;18.784;2022-09-17T10:16:27;994.20;;;15.57;61.22
48810;BME280;40070;47.322;18.784;2022-09-17T10:18:30;993.99;;;15.45;60.54
48810;BME280;40070;47.322;18.784;2022-09-17T10:20:32;993.85;;;15.51;61.18
48810;BME280;40070;47.322;18.784;2022-09-17T10:22:35;993.78;;;15.51;59.89
48810;BME280;40070;47.322;18.784;2022-09-17T10:24:38;993.89;;;15.52;60.06
48810;BME280;40070;47.322;18.784;2022-09-17T10:26:41;994.02;;;15.64;61.17
48810;BME280;40070;47.322;18.784;2022-09-17T10:28:51;993.93;;;15.84;60.25
48810;BME280;40070;47.322;18.784;2022-09-17T10:30:58;993.87;;;15.77;60.61
48810;BME280;40070;47.322;18.784;2022-09-17T10:33:24;993.92;;;15.81;59.87
48810;BME280;40070;47.322;18.784;2022-09-17T10:35:28;993.83;;;15.56;60.36
48810;BME280;40070;47.322;18.784;2022-09-17T10:39:48;993.58;;;15.16;60.83
48810;BME280;40070;47.322;18.784;2022-09-17T10:44:16;993.47;;;15.16;61.07
48810;BME280;40070;47.322;18.784;2022-09-17T10:46:28;993.33;;;15.25;60.05
48810;BME280;40070;47.322;18.784;2022-09-17T10:48:35;993.05;;;15.25;60.23
48810;BME280;40070;47.322;18.784;2022-09-17T10:50:39;993.09;;;15.23;60.43
48810;BME280;40070;47.322;18.784;2022-09-17T10:52:49;993.24;;;15.27;60.62
48810;BME280;40070;47.322;18.784;2022-09-17T10:57:26;993.59;;;15.41;60.91
48810;BME280;40070;47.322;18.784;2022-09-17T10:59:54;993.72;;;15.39;60.53
48810;BME280;40070;47.322;18.784;2022-09-17T11:04:49;994.05;;;15.65;59.08
48810;BME280;40070;47.322;18.784;2022-09-17T11:06:59;993.94;;;15.56;59.00
48810;BME280;40070;47.322;18.784;2022-09-17T11:13:46;993.93;;;15.25;58.56
48810;BME280;40070;47.322;18.784;2022-09-17T11:16:02;994.09;;;15.25;58.00
48810;BME280;40070;47.322;18.784;2022-09-17T11:20:44;994.14;;;15.53;57.40
48810;BME280;40070;47.322;18.784;2022-09-17T11:22:44;994.06;;;15.56;58.16
48810;BME280;40070;47.322;18.784;2022-09-17T11:25:06;993.96;;;15.49;57.46
48810;BME280;40070;47.322;18.784;2022-09-17T11:27:19;993.80;;;15.55;57.59
48810;BME280;40070;47.322;18.784;2022-09-17T11:34:41;993.83;;;15.59;57.39
48810;BME280;40070;47.322;18.784;2022-09-17T11:36:56;993.69;;;15.61;55.97
48810;BME280;40070;47.322;18.784;2022-09-17T11:38:49;993.62;;;15.53;56.57
48810;BME280;40070;47.322;18.784;2022-09-17T11:41:09;993.54;;;15.56;55.68
48810;BME280;40070;47.322;18.784;2022-09-17T11:43:26;993.35;;;15.46;55.31
48810;BME280;40070;47.322;18.784;2022-09-17T11:45:31;993.22;;;15.31;54.01
48810;BME280;40070;47.322;18.784;2022-09-17T11:47:38;993.25;;;15.35;54.56
48810;BME280;40070;47.322;18.784;2022-09-17T11:49:49;993.11;;;15.39;54.83
48810;BME280;40070;47.322;18.784;2022-09-17T11:51:56;993.00;;;15.49;55.96
48810;BME280;40070;47.322;18.784;2022-09-17T11:58:47;992.86;;;15.45;55.55
48810;BME280;40070;47.322;18.784;2022-09-17T12:01:12;992.81;;;15.38;54.85
48810;BME280;40070;47.322;18.784;2022-09-17T12:03:10;992.87;;;15.35;54.78
48810;BME280;40070;47.322;18.784;2022-09-17T12:09:48;992.74;;;15.34;55.23
48810;BME280;40070;47.322;18.784;2022-09-17T12:12:06;992.78;;;15.22;55.84
48810;BME280;40070;47.322;18.784;2022-09-17T12:14:21;992.76;;;15.27;55.10
48810;BME280;40070;47.322;18.784;2022-09-17T12:16:39;992.70;;;15.19;55.43
48810;BME280;40070;47.322;18.784;2022-09-17T12:20:57;992.54;;;15.14;55.73
48810;BME280;40070;47.322;18.784;2022-09-17T12:23:02;992.48;;;15.15;54.99
48810;BME280;40070;47.322;18.784;2022-09-17T12:25:10;992.59;;;15.17;55.10
48810;BME280;40070;47.322;18.784;2022-09-17T12:27:59;992.61;;;15.23;53.86
48810;BME280;40070;47.322;18.784;2022-09-17T12:31:47;992.41;;;15.20;54.25
48810;BME280;40070;47.322;18.784;2022-09-17T12:33:54;992.29;;;15.25;54.35
48810;BME280;40070;47.322;18.784;2022-09-17T12:36:08;992.26;;;15.33;53.92
48810;BME280;40070;47.322;18.784;2022-09-17T12:40:53;992.46;;;15.45;54.31
48810;BME280;40070;47.322;18.784;2022-09-17T12:45:24;992.52;;;15.41;55.01
48810;BME280;40070;47.322;18.784;2022-09-17T12:49:53;992.63;;;15.31;53.80